createdAt,value
2019-01-19T00:03:18.168Z,7.67
2019-01-19T00:08:39.274Z,6.97
2019-01-19T00:13:32.452Z,7.13
2019-01-19T00:19:02.089Z,6.77
2019-01-19T00:23:48.720Z,7.50
2019-01-19T00:28:41.569Z,6.93
2019-01-19T00:34:14.532Z,5.70
2019-01-19T00:39:37.682Z,6.67
2019-01-19T00:44:46.349Z,7.37
2019-01-19T00:49:26.500Z,7.60
2019-01-19T00:54:00.576Z,8.00
2019-01-19T00:58:59.567Z,8.20
2019-01-19T01:04:13.089Z,8.23
2019-01-19T01:09:36.256Z,6.10
2019-01-19T01:15:28.490Z,6.43
2019-01-19T01:20:48.441Z,8.73
2019-01-19T01:26:28.279Z,7.77
2019-01-19T01:31:29.250Z,7.70
2019-01-19T01:36:21.033Z,7.77
2019-01-19T01:41:28.758Z,7.80
2019-01-19T01:46:52.860Z,8.10
2019-01-19T01:52:00.085Z,8.00
2019-01-19T01:56:18.369Z,7.63
2019-01-19T02:01:12.631Z,6.80
2019-01-19T02:05:48.211Z,6.90
2019-01-19T02:11:27.594Z,8.13
2019-01-19T02:17:12.775Z,6.63
2019-01-19T02:22:48.502Z,6.47
2019-01-19T02:27:47.322Z,6.77
2019-01-19T02:32:43.288Z,6.87
2019-01-19T02:37:51.667Z,6.47
2019-01-19T02:43:02.912Z,5.97
2019-01-19T02:48:29.651Z,6.73
2019-01-19T02:53:47.073Z,5.97
2019-01-19T02:59:04.940Z,6.30
2019-01-19T03:04:11.604Z,5.83
2019-01-19T03:09:29.856Z,6.83
2019-01-19T03:14:40.866Z,6.77
2019-01-19T03:19:48.286Z,6.27
2019-01-19T03:25:03.897Z,6.57
2019-01-19T03:30:07.314Z,6.30
2019-01-19T03:35:24.323Z,6.87
2019-01-19T03:40:57.808Z,6.73
2019-01-19T03:46:27.094Z,6.07
2019-01-19T03:52:06.576Z,5.37
2019-01-19T03:57:18.821Z,6.80
2019-01-19T04:02:42.036Z,6.50
2019-01-19T04:07:19.785Z,6.13
2019-01-19T04:12:25.694Z,7.33
2019-01-19T04:17:20.283Z,6.87
2019-01-19T04:22:19.910Z,7.60
2019-01-19T04:26:44.338Z,6.73
2019-01-19T04:31:02.556Z,7.00
2019-01-19T04:35:20.732Z,8.10
2019-01-19T04:39:38.965Z,6.57
2019-01-19T04:43:57.291Z,7.70
2019-01-19T04:48:16.870Z,6.70
2019-01-19T04:52:35.727Z,7.13
2019-01-19T04:56:54.279Z,6.80
2019-01-19T05:01:12.365Z,6.53
2019-01-19T05:05:30.387Z,7.87
2019-01-19T05:09:48.834Z,7.20
2019-01-19T05:14:07.185Z,6.73
2019-01-19T05:18:25.749Z,6.57
2019-01-19T05:22:44.028Z,7.33
2019-01-19T05:27:02.190Z,6.23
2019-01-19T05:31:21.042Z,7.10
2019-01-19T05:35:39.163Z,6.20
2019-01-19T05:39:57.305Z,7.47
2019-01-19T05:44:15.561Z,7.57
2019-01-19T05:48:32.472Z,7.20
2019-01-19T05:52:50.736Z,6.67
2019-01-19T05:57:08.924Z,7.50
2019-01-19T06:01:28.251Z,6.70
2019-01-19T06:05:47.410Z,6.63
2019-01-19T06:10:06.534Z,5.80
2019-01-19T06:14:24.779Z,6.97
2019-01-19T06:18:43.479Z,7.27
2019-01-19T06:23:01.730Z,6.70
2019-01-19T06:27:19.769Z,6.30
2019-01-19T06:31:37.933Z,6.00
2019-01-19T06:35:56.159Z,5.60
2019-01-19T06:40:15.357Z,5.47
2019-01-19T06:44:33.832Z,5.57
2019-01-19T06:48:52.085Z,6.27
2019-01-19T06:53:10.149Z,5.70
2019-01-19T06:57:28.597Z,5.90
2019-01-19T07:01:47.091Z,5.57
2019-01-19T07:06:06.199Z,6.60
2019-01-19T07:10:26.387Z,5.27
2019-01-19T07:14:44.421Z,6.47
2019-01-19T07:19:02.622Z,5.97
2019-01-19T07:23:20.921Z,6.20
2019-01-19T07:27:39.284Z,6.47
2019-01-19T07:31:57.460Z,7.20
2019-01-19T07:36:16.018Z,6.10
2019-01-19T07:40:35.164Z,7.17
2019-01-19T07:44:53.158Z,8.37
2019-01-19T07:49:11.197Z,7.50
2019-01-19T07:53:31.039Z,8.83
2019-01-19T07:57:49.199Z,8.20
2019-01-19T08:02:07.329Z,7.53
2019-01-19T08:06:25.563Z,7.20
2019-01-19T08:10:43.907Z,7.20
2019-01-19T08:15:02.151Z,8.00
2019-01-19T08:19:20.183Z,8.40
2019-01-19T08:23:38.734Z,8.50
2019-01-19T08:27:57.101Z,8.73
2019-01-19T08:32:16.053Z,7.83
2019-01-19T08:36:34.444Z,8.50
2019-01-19T08:40:53.386Z,11.97
2019-01-19T08:45:12.664Z,9.13
2019-01-19T08:49:31.555Z,9.93
2019-01-19T08:53:52.296Z,7.90
2019-01-19T08:58:10.875Z,9.80
2019-01-19T09:02:29.145Z,8.20
2019-01-19T09:06:47.416Z,9.37
2019-01-19T09:11:06.192Z,8.40
2019-01-19T09:15:38.178Z,8.60
2019-01-19T09:19:57.804Z,8.63
2019-01-19T09:24:21.280Z,10.90
2019-01-19T09:28:40.903Z,8.97
2019-01-19T09:33:00.104Z,10.13
2019-01-19T09:37:18.606Z,10.03
2019-01-19T09:41:36.797Z,10.33
2019-01-19T09:46:02.335Z,8.17
2019-01-19T09:50:21.359Z,8.97
2019-01-19T09:54:40.513Z,9.90
2019-01-19T09:58:58.728Z,8.40
2019-01-19T10:03:17.210Z,8.73
2019-01-19T10:07:40.733Z,7.87
2019-01-19T10:11:59.032Z,7.70
2019-01-19T10:16:17.213Z,7.80
2019-01-19T10:20:35.536Z,7.40
2019-01-19T10:24:53.854Z,7.73
2019-01-19T10:29:13.074Z,6.70
2019-01-19T10:33:31.439Z,7.33
2019-01-19T10:37:56.239Z,7.27
2019-01-19T10:42:12.245Z,8.50
2019-01-19T10:46:31.252Z,9.40
2019-01-19T10:50:49.863Z,6.20
2019-01-19T10:55:08.750Z,7.87
2019-01-19T10:59:27.475Z,7.03
2019-01-19T11:03:45.736Z,7.50
2019-01-19T11:08:06.433Z,7.10
2019-01-19T11:12:27.227Z,7.37
2019-01-19T11:16:47.987Z,9.23
2019-01-19T11:21:06.218Z,8.60
2019-01-19T11:25:26.363Z,8.10
2019-01-19T11:29:45.420Z,8.47
2019-01-19T11:34:05.336Z,8.00
2019-01-19T11:38:25.357Z,8.30
2019-01-19T11:42:44.249Z,7.20
2019-01-19T11:47:02.547Z,8.73
2019-01-19T11:51:22.695Z,8.93
2019-01-19T11:55:41.729Z,9.30
2019-01-19T12:00:00.429Z,8.20
2019-01-19T12:04:18.801Z,8.60
2019-01-19T12:08:37.523Z,8.37
2019-01-19T12:12:57.453Z,7.73
2019-01-19T12:17:16.789Z,8.60
2019-01-19T12:21:34.976Z,8.50
2019-01-19T12:25:54.251Z,10.63
2019-01-19T12:30:28.303Z,9.27
2019-01-19T12:34:47.067Z,9.60
2019-01-19T12:39:08.590Z,7.80
2019-01-19T12:43:27.361Z,9.67
2019-01-19T12:47:46.127Z,8.40
2019-01-19T12:52:04.485Z,9.77
2019-01-19T12:56:23.403Z,8.90
2019-01-19T13:00:41.571Z,9.23
2019-01-19T13:04:59.783Z,7.80
2019-01-19T13:09:26.262Z,8.83
2019-01-19T13:13:49.040Z,9.03
2019-01-19T13:19:02.590Z,10.60
2019-01-19T13:23:50.128Z,10.83
2019-01-19T13:29:35.317Z,10.63
2019-01-19T13:34:57.860Z,10.00
2019-01-19T13:40:05.266Z,10.17
2019-01-19T13:45:06.836Z,11.10
2019-01-19T13:50:16.437Z,11.20
2019-01-19T13:55:59.167Z,12.10
2019-01-19T14:01:21.597Z,11.13
2019-01-19T14:06:36.396Z,10.77
2019-01-19T14:12:00.082Z,11.43
2019-01-19T14:16:54.874Z,11.10
2019-01-19T14:22:05.952Z,10.17
2019-01-19T14:27:08.994Z,10.67
2019-01-19T14:32:30.878Z,9.03
2019-01-19T14:37:58.662Z,8.93
2019-01-19T14:43:03.951Z,10.17
2019-01-19T14:48:05.552Z,9.70
2019-01-19T14:53:28.561Z,9.80
2019-01-19T14:58:34.234Z,10.87
2019-01-19T15:03:52.272Z,8.83
2019-01-19T15:08:37.403Z,9.43
2019-01-19T15:14:11.773Z,10.10
2019-01-19T15:19:24.721Z,8.60
2019-01-19T15:24:13.342Z,9.03
2019-01-19T15:29:52.154Z,8.07
2019-01-19T15:35:03.895Z,9.90
2019-01-19T15:40:06.863Z,9.50
2019-01-19T15:45:18.340Z,11.30
2019-01-19T15:50:46.550Z,10.90
2019-01-19T15:56:21.655Z,10.30
2019-01-19T16:01:39.190Z,10.43
2019-01-19T16:06:47.133Z,9.57
2019-01-19T16:12:11.454Z,9.67
2019-01-19T16:17:16.025Z,8.77
2019-01-19T16:22:36.623Z,10.73
2019-01-19T16:28:02.110Z,10.30
2019-01-19T16:33:11.420Z,10.83
2019-01-19T16:38:04.323Z,10.70
2019-01-19T16:43:18.877Z,11.00
2019-01-19T16:48:24.564Z,12.30
2019-01-19T16:53:21.694Z,11.43
2019-01-19T16:58:12.452Z,10.90
2019-01-19T17:03:28.872Z,12.57
2019-01-19T17:09:07.749Z,12.67
2019-01-19T17:14:08.688Z,11.80
2019-01-19T17:19:27.056Z,11.77
2019-01-19T17:24:28.340Z,11.77
2019-01-19T17:29:25.861Z,12.50
2019-01-19T17:34:32.972Z,11.73
2019-01-19T17:39:47.491Z,11.90
2019-01-19T17:44:50.293Z,13.53
2019-01-19T17:49:50.715Z,12.70
2019-01-19T17:55:01.317Z,12.27
2019-01-19T18:00:19.691Z,12.80
2019-01-19T18:04:57.089Z,12.17
2019-01-19T18:10:21.604Z,14.10
2019-01-19T18:15:55.219Z,14.20
2019-01-19T18:20:42.349Z,11.83
2019-01-19T18:25:49.634Z,14.07
2019-01-19T18:30:45.363Z,13.27
2019-01-19T18:36:17.902Z,14.20
2019-01-19T18:41:44.654Z,13.93
2019-01-19T18:46:56.931Z,13.37
2019-01-19T18:52:05.417Z,12.33
2019-01-19T18:57:44.761Z,13.17
2019-01-19T19:02:44.273Z,12.03
2019-01-19T19:07:45.454Z,12.50
2019-01-19T19:12:55.359Z,12.07
2019-01-19T19:17:57.294Z,11.97
2019-01-19T19:22:54.555Z,11.30
2019-01-19T19:28:16.205Z,11.50
2019-01-19T19:33:10.769Z,10.80
2019-01-19T19:38:29.169Z,11.07
2019-01-19T19:43:27.872Z,10.90
2019-01-19T19:48:34.653Z,10.87
2019-01-19T19:52:53.137Z,10.67
2019-01-19T19:57:11.263Z,12.20
2019-01-19T20:01:29.629Z,11.70
2019-01-19T20:05:47.867Z,14.23
2019-01-19T20:10:08.095Z,12.53
2019-01-19T20:14:26.231Z,12.37
2019-01-19T20:18:44.315Z,12.07
2019-01-19T20:23:03.078Z,13.20
2019-01-19T20:27:22.663Z,13.73
2019-01-19T20:31:42.496Z,12.70
2019-01-19T20:36:01.438Z,12.13
2019-01-19T20:40:24.304Z,12.00
2019-01-19T20:44:39.583Z,13.57
2019-01-19T20:48:58.582Z,12.03
2019-01-19T20:53:17.136Z,11.60
2019-01-19T20:57:35.341Z,12.17
2019-01-19T21:01:53.489Z,11.87
2019-01-19T21:06:12.089Z,12.93
2019-01-19T21:10:32.218Z,11.70
2019-01-19T21:14:50.565Z,13.70
2019-01-19T21:19:09.031Z,10.57
2019-01-19T21:23:27.667Z,12.03
2019-01-19T21:27:46.434Z,12.83
2019-01-19T21:32:04.647Z,11.93
2019-01-19T21:36:24.138Z,12.17
2019-01-19T21:40:43.765Z,11.43
2019-01-19T21:45:03.672Z,12.10
2019-01-19T21:49:22.264Z,11.50
2019-01-19T21:53:40.736Z,11.50
2019-01-19T21:57:58.801Z,11.23
2019-01-19T22:02:17.031Z,11.83
2019-01-19T22:06:35.238Z,12.97
2019-01-19T22:10:53.701Z,10.97
2019-01-19T22:15:15.500Z,12.07
2019-01-19T22:19:33.897Z,11.10
2019-01-19T22:23:52.031Z,12.53
2019-01-19T22:28:11.551Z,12.13
2019-01-19T22:32:30.418Z,10.27
2019-01-19T22:36:49.066Z,12.70
2019-01-19T22:41:07.582Z,11.30
2019-01-19T22:45:25.852Z,11.97
2019-01-19T22:49:44.915Z,11.40
2019-01-19T22:54:03.418Z,11.70
2019-01-19T22:58:21.823Z,10.53
2019-01-19T23:02:40.124Z,10.57
2019-01-19T23:06:58.797Z,11.47
2019-01-19T23:11:17.132Z,11.60
2019-01-19T23:15:35.438Z,13.10
2019-01-19T23:19:53.574Z,11.60
2019-01-19T23:24:11.762Z,11.77
2019-01-19T23:28:31.243Z,13.10
2019-01-19T23:32:49.593Z,13.33
2019-01-19T23:37:07.824Z,12.50
2019-01-19T23:41:26.275Z,12.43
2019-01-19T23:45:44.581Z,11.23
2019-01-19T23:50:02.908Z,12.20
2019-01-19T23:54:21.361Z,13.70
2019-01-19T23:58:40.443Z,11.90
